sensor_id;sensor_type;location;lat;lon;timestamp;pressure;altitude;pressure_sealevel;temperature;humidity
15678;BME280;7939;50.814;6.368;2023-06-22T00:01:12;100135.56;;;26.45;47.94
15678;BME280;7939;50.814;6.368;2023-06-22T00:03:39;100129.47;;;26.44;47.92
15678;BME280;7939;50.814;6.368;2023-06-22T00:06:06;100134.81;;;26.43;47.98
15678;BME280;7939;50.814;6.368;2023-06-22T00:08:33;100135.75;;;26.42;47.82
15678;BME280;7939;50.814;6.368;2023-06-22T00:11:01;100138.47;;;26.40;47.95
15678;BME280;7939;50.814;6.368;2023-06-22T00:13:28;100144.56;;;26.41;47.45
15678;BME280;7939;50.814;6.368;2023-06-22T00:15:54;100141.97;;;26.39;47.93
15678;BME280;7939;50.814;6.368;2023-06-22T00:18:21;100143.84;;;26.37;47.94
15678;BME280;7939;50.814;6.368;2023-06-22T00:20:54;100136.00;;;26.37;48.04
15678;BME280;7939;50.814;6.368;2023-06-22T00:23:23;100145.75;;;26.35;47.62
15678;BME280;7939;50.814;6.368;2023-06-22T00:25:50;100137.88;;;26.35;48.10
15678;BME280;7939;50.814;6.368;2023-06-22T00:28:18;100138.03;;;26.32;48.06
15678;BME280;7939;50.814;6.368;2023-06-22T00:30:46;100141.59;;;26.31;47.94
15678;BME280;7939;50.814;6.368;2023-06-22T00:33:12;100135.53;;;26.30;48.09
15678;BME280;7939;50.814;6.368;2023-06-22T00:35:39;100134.69;;;26.30;47.98
15678;BME280;7939;50.814;6.368;2023-06-22T00:38:07;100139.19;;;26.28;48.25
15678;BME280;7939;50.814;6.368;2023-06-22T00:40:34;100132.22;;;26.27;47.70
15678;BME280;7939;50.814;6.368;2023-06-22T00:43:01;100137.47;;;26.27;47.90
15678;BME280;7939;50.814;6.368;2023-06-22T00:45:29;100128.88;;;26.25;48.02
15678;BME280;7939;50.814;6.368;2023-06-22T00:47:56;100124.56;;;26.24;48.22
15678;BME280;7939;50.814;6.368;2023-06-22T00:50:25;100115.88;;;26.23;48.19
15678;BME280;7939;50.814;6.368;2023-06-22T00:52:54;100114.19;;;26.22;47.94
15678;BME280;7939;50.814;6.368;2023-06-22T00:55:22;100127.34;;;26.21;48.25
15678;BME280;7939;50.814;6.368;2023-06-22T00:57:50;100115.19;;;26.20;48.22
15678;BME280;7939;50.814;6.368;2023-06-22T01:00:22;100115.19;;;26.20;48.18
15678;BME280;7939;50.814;6.368;2023-06-22T01:02:52;100105.66;;;26.19;48.10
15678;BME280;7939;50.814;6.368;2023-06-22T01:05:19;100106.69;;;26.16;48.10
15678;BME280;7939;50.814;6.368;2023-06-22T01:08:00;100110.25;;;26.15;48.52
15678;BME280;7939;50.814;6.368;2023-06-22T01:10:35;100095.44;;;26.14;48.22
15678;BME280;7939;50.814;6.368;2023-06-22T01:13:11;100095.44;;;26.14;48.02
15678;BME280;7939;50.814;6.368;2023-06-22T01:15:46;100091.34;;;26.10;48.49
15678;BME280;7939;50.814;6.368;2023-06-22T01:18:18;100098.34;;;26.09;48.26
15678;BME280;7939;50.814;6.368;2023-06-22T01:20:46;100085.25;;;26.09;48.56
15678;BME280;7939;50.814;6.368;2023-06-22T01:23:23;100089.72;;;26.07;47.98
15678;BME280;7939;50.814;6.368;2023-06-22T01:25:59;100086.25;;;26.07;48.49
15678;BME280;7939;50.814;6.368;2023-06-22T01:28:40;100080.28;;;26.05;48.29
15678;BME280;7939;50.814;6.368;2023-06-22T01:31:10;100081.22;;;26.04;48.40
15678;BME280;7939;50.814;6.368;2023-06-22T01:33:41;100078.69;;;26.02;48.38
15678;BME280;7939;50.814;6.368;2023-06-22T01:36:09;100084.00;;;26.01;48.36
15678;BME280;7939;50.814;6.368;2023-06-22T01:38:37;100078.75;;;26.01;48.51
15678;BME280;7939;50.814;6.368;2023-06-22T01:41:04;100079.69;;;26.00;48.37
15678;BME280;7939;50.814;6.368;2023-06-22T01:43:32;100075.50;;;25.97;48.28
15678;BME280;7939;50.814;6.368;2023-06-22T01:46:01;100077.28;;;25.97;48.46
15678;BME280;7939;50.814;6.368;2023-06-22T01:48:28;100073.81;;;25.96;48.63
15678;BME280;7939;50.814;6.368;2023-06-22T01:50:55;100073.88;;;25.95;48.61
15678;BME280;7939;50.814;6.368;2023-06-22T01:53:23;100073.13;;;25.93;48.17
15678;BME280;7939;50.814;6.368;2023-06-22T01:55:50;100074.06;;;25.92;48.63
15678;BME280;7939;50.814;6.368;2023-06-22T01:58:20;100074.06;;;25.92;48.40
15678;BME280;7939;50.814;6.368;2023-06-22T02:00:52;100079.41;;;25.90;48.50
15678;BME280;7939;50.814;6.368;2023-06-22T02:03:23;100068.16;;;25.88;48.38
15678;BME280;7939;50.814;6.368;2023-06-22T02:05:56;100072.56;;;25.88;48.60
15678;BME280;7939;50.814;6.368;2023-06-22T02:08:25;100075.28;;;25.86;48.88
15678;BME280;7939;50.814;6.368;2023-06-22T02:10:55;100068.38;;;25.85;48.36
15678;BME280;7939;50.814;6.368;2023-06-22T02:13:24;100070.13;;;25.85;48.58
15678;BME280;7939;50.814;6.368;2023-06-22T02:15:51;100068.47;;;25.84;48.61
15678;BME280;7939;50.814;6.368;2023-06-22T02:18:18;100070.31;;;25.81;48.66
15678;BME280;7939;50.814;6.368;2023-06-22T02:20:47;100066.84;;;25.81;48.49
15678;BME280;7939;50.814;6.368;2023-06-22T02:23:14;100067.88;;;25.78;48.86
15678;BME280;7939;50.814;6.368;2023-06-22T02:25:41;100067.03;;;25.78;48.49
15678;BME280;7939;50.814;6.368;2023-06-22T02:28:10;100071.44;;;25.77;48.73
15678;BME280;7939;50.814;6.368;2023-06-22T02:30:37;100068.03;;;25.75;48.58
15678;BME280;7939;50.814;6.368;2023-06-22T02:33:04;100061.03;;;25.76;48.85
15678;BME280;7939;50.814;6.368;2023-06-22T02:35:31;100059.34;;;25.75;48.89
15678;BME280;7939;50.814;6.368;2023-06-22T02:38:03;100056.81;;;25.73;48.85
15678;BME280;7939;50.814;6.368;2023-06-22T02:40:31;100052.50;;;25.72;48.77
15678;BME280;7939;50.814;6.368;2023-06-22T02:42:58;100051.72;;;25.70;48.83
15678;BME280;7939;50.814;6.368;2023-06-22T02:45:27;100050.88;;;25.70;48.98
15678;BME280;7939;50.814;6.368;2023-06-22T02:47:55;100049.19;;;25.69;49.10
15678;BME280;7939;50.814;6.368;2023-06-22T02:50:21;100044.06;;;25.67;49.09
15678;BME280;7939;50.814;6.368;2023-06-22T02:52:48;100034.53;;;25.66;48.96
15678;BME280;7939;50.814;6.368;2023-06-22T02:55:16;100035.47;;;25.65;49.03
15678;BME280;7939;50.814;6.368;2023-06-22T02:57:43;100028.50;;;25.64;48.98
15678;BME280;7939;50.814;6.368;2023-06-22T03:00:13;100024.22;;;25.63;48.90
15678;BME280;7939;50.814;6.368;2023-06-22T03:02:42;100026.84;;;25.63;48.89
15678;BME280;7939;50.814;6.368;2023-06-22T03:05:09;100026.84;;;25.63;48.87
15678;BME280;7939;50.814;6.368;2023-06-22T03:07:39;100025.16;;;25.62;49.02
15678;BME280;7939;50.814;6.368;2023-06-22T03:10:08;100024.31;;;25.62;48.94
15678;BME280;7939;50.814;6.368;2023-06-22T03:12:37;100014.78;;;25.61;49.07
15678;BME280;7939;50.814;6.368;2023-06-22T03:15:05;100007.88;;;25.60;48.91
15678;BME280;7939;50.814;6.368;2023-06-22T03:17:33;99997.47;;;25.58;49.14
15678;BME280;7939;50.814;6.368;2023-06-22T03:20:00;99991.38;;;25.58;49.09
15678;BME280;7939;50.814;6.368;2023-06-22T03:22:32;99994.94;;;25.56;49.13
15678;BME280;7939;50.814;6.368;2023-06-22T03:24:59;99983.63;;;25.56;49.30
15678;BME280;7939;50.814;6.368;2023-06-22T03:27:26;99973.25;;;25.54;49.21
15678;BME280;7939;50.814;6.368;2023-06-22T03:29:54;99968.88;;;25.55;49.22
15678;BME280;7939;50.814;6.368;2023-06-22T03:32:20;99973.38;;;25.53;49.39
15678;BME280;7939;50.814;6.368;2023-06-22T03:34:47;99994.31;;;25.53;49.46
15678;BME280;7939;50.814;6.368;2023-06-22T03:37:14;99993.47;;;25.52;49.32
15678;BME280;7939;50.814;6.368;2023-06-22T03:39:41;99994.38;;;25.51;49.73
15678;BME280;7939;50.814;6.368;2023-06-22T03:42:08;99997.91;;;25.50;49.74
15678;BME280;7939;50.814;6.368;2023-06-22T03:44:35;99998.84;;;25.49;49.92
15678;BME280;7939;50.814;6.368;2023-06-22T03:47:04;99997.28;;;25.47;49.98
15678;BME280;7939;50.814;6.368;2023-06-22T03:49:32;99990.34;;;25.46;50.08
15678;BME280;7939;50.814;6.368;2023-06-22T03:51:59;99986.03;;;25.45;50.14
15678;BME280;7939;50.814;6.368;2023-06-22T03:54:26;99985.19;;;25.44;50.27
15678;BME280;7939;50.814;6.368;2023-06-22T03:56:53;99984.34;;;25.44;50.33
15678;BME280;7939;50.814;6.368;2023-06-22T03:59:20;99986.13;;;25.43;50.31
15678;BME280;7939;50.814;6.368;2023-06-22T04:01:46;99991.47;;;25.42;50.36
15678;BME280;7939;50.814;6.368;2023-06-22T04:04:14;99992.31;;;25.42;50.28
15678;BME280;7939;50.814;6.368;2023-06-22T04:06:41;99996.78;;;25.40;50.46
15678;BME280;7939;50.814;6.368;2023-06-22T04:09:08;100000.31;;;25.39;50.54
15678;BME280;7939;50.814;6.368;2023-06-22T04:11:34;100003.88;;;25.38;50.70
15678;BME280;7939;50.814;6.368;2023-06-22T04:14:01;100010.03;;;25.37;50.84
15678;BME280;7939;50.814;6.368;2023-06-22T04:16:28;100008.34;;;25.36;50.73
15678;BME280;7939;50.814;6.368;2023-06-22T04:18:54;100008.34;;;25.36;50.65
15678;BME280;7939;50.814;6.368;2023-06-22T04:21:23;100012.75;;;25.36;50.87
15678;BME280;7939;50.814;6.368;2023-06-22T04:23:50;100012.84;;;25.34;50.66
15678;BME280;7939;50.814;6.368;2023-06-22T04:26:16;100014.63;;;25.34;50.74
15678;BME280;7939;50.814;6.368;2023-06-22T04:28:46;100019.06;;;25.32;50.70
15678;BME280;7939;50.814;6.368;2023-06-22T04:31:17;100016.56;;;25.30;50.65
15678;BME280;7939;50.814;6.368;2023-06-22T04:33:45;100016.56;;;25.30;50.83
15678;BME280;7939;50.814;6.368;2023-06-22T04:36:11;100011.31;;;25.30;50.79
15678;BME280;7939;50.814;6.368;2023-06-22T04:38:40;100001.78;;;25.29;50.84
15678;BME280;7939;50.814;6.368;2023-06-22T04:41:07;99996.56;;;25.29;51.06
15678;BME280;7939;50.814;6.368;2023-06-22T04:43:39;100000.09;;;25.28;50.79
15678;BME280;7939;50.814;6.368;2023-06-22T04:46:06;100003.56;;;25.28;50.93
15678;BME280;7939;50.814;6.368;2023-06-22T04:48:33;100004.50;;;25.27;50.79
15678;BME280;7939;50.814;6.368;2023-06-22T04:50:59;100005.41;;;25.26;51.17
15678;BME280;7939;50.814;6.368;2023-06-22T04:53:28;100001.94;;;25.26;50.96
15678;BME280;7939;50.814;6.368;2023-06-22T04:55:57;100001.94;;;25.26;51.09
15678;BME280;7939;50.814;6.368;2023-06-22T04:58:23;100001.19;;;25.24;51.18
15678;BME280;7939;50.814;6.368;2023-06-22T05:00:52;99994.19;;;25.24;51.10
15678;BME280;7939;50.814;6.368;2023-06-22T05:03:22;99995.97;;;25.24;51.29
15678;BME280;7939;50.814;6.368;2023-06-22T05:05:51;99990.00;;;25.22;51.38
15678;BME280;7939;50.814;6.368;2023-06-22T05:08:19;99987.38;;;25.22;51.47
15678;BME280;7939;50.814;6.368;2023-06-22T05:10:45;99993.53;;;25.21;51.30
15678;BME280;7939;50.814;6.368;2023-06-22T05:13:13;99991.78;;;25.21;51.10
15678;BME280;7939;50.814;6.368;2023-06-22T05:15:40;99998.78;;;25.21;51.24
15678;BME280;7939;50.814;6.368;2023-06-22T05:18:07;100001.41;;;25.21;51.09
15678;BME280;7939;50.814;6.368;2023-06-22T05:20:33;100004.00;;;25.21;51.17
15678;BME280;7939;50.814;6.368;2023-06-22T05:23:01;100009.25;;;25.21;51.31
15678;BME280;7939;50.814;6.368;2023-06-22T05:25:28;100001.44;;;25.19;51.26
15678;BME280;7939;50.814;6.368;2023-06-22T05:27:57;100004.06;;;25.19;51.41
15678;BME280;7939;50.814;6.368;2023-06-22T05:30:27;100002.28;;;25.20;51.34
15678;BME280;7939;50.814;6.368;2023-06-22T05:32:53;99994.53;;;25.18;51.34
15678;BME280;7939;50.814;6.368;2023-06-22T05:35:20;99998.94;;;25.18;51.55
15678;BME280;7939;50.814;6.368;2023-06-22T05:37:47;100003.22;;;25.19;51.57
15678;BME280;7939;50.814;6.368;2023-06-22T05:40:14;99999.78;;;25.18;51.43
15678;BME280;7939;50.814;6.368;2023-06-22T05:42:40;100004.16;;;25.18;51.62
15678;BME280;7939;50.814;6.368;2023-06-22T05:45:08;100009.41;;;25.18;51.36
15678;BME280;7939;50.814;6.368;2023-06-22T05:47:36;100005.84;;;25.19;51.53
15678;BME280;7939;50.814;6.368;2023-06-22T05:50:04;99998.00;;;25.19;51.43
15678;BME280;7939;50.814;6.368;2023-06-22T05:52:33;100000.63;;;25.19;51.66
15678;BME280;7939;50.814;6.368;2023-06-22T05:55:02;100008.56;;;25.17;51.53
15678;BME280;7939;50.814;6.368;2023-06-22T05:57:28;100010.25;;;25.18;51.63
15678;BME280;7939;50.814;6.368;2023-06-22T05:59:55;100010.16;;;25.20;51.62
15678;BME280;7939;50.814;6.368;2023-06-22T06:02:22;100008.38;;;25.20;51.59
15678;BME280;7939;50.814;6.368;2023-06-22T06:04:50;100010.97;;;25.20;51.56
15678;BME280;7939;50.814;6.368;2023-06-22T06:07:18;100007.47;;;25.21;51.59
15678;BME280;7939;50.814;6.368;2023-06-22T06:09:44;100009.25;;;25.21;51.71
15678;BME280;7939;50.814;6.368;2023-06-22T06:12:13;100013.53;;;25.22;51.59
15678;BME280;7939;50.814;6.368;2023-06-22T06:14:40;100015.22;;;25.23;51.53
15678;BME280;7939;50.814;6.368;2023-06-22T06:17:06;100016.16;;;25.22;51.40
15678;BME280;7939;50.814;6.368;2023-06-22T06:19:33;100017.00;;;25.22;51.66
15678;BME280;7939;50.814;6.368;2023-06-22T06:22:02;100016.06;;;25.23;51.51
15678;BME280;7939;50.814;6.368;2023-06-22T06:24:29;100019.59;;;25.22;51.75
15678;BME280;7939;50.814;6.368;2023-06-22T06:26:55;100018.66;;;25.23;51.65
15678;BME280;7939;50.814;6.368;2023-06-22T06:29:22;100022.13;;;25.24;51.58
15678;BME280;7939;50.814;6.368;2023-06-22T06:31:49;100017.75;;;25.24;51.61
15678;BME280;7939;50.814;6.368;2023-06-22T06:34:16;100028.19;;;25.24;51.50
15678;BME280;7939;50.814;6.368;2023-06-22T06:36:43;100020.34;;;25.24;51.56
15678;BME280;7939;50.814;6.368;2023-06-22T06:39:12;100018.66;;;25.23;51.49
15678;BME280;7939;50.814;6.368;2023-06-22T06:41:38;100015.97;;;25.25;51.46
15678;BME280;7939;50.814;6.368;2023-06-22T06:44:05;100007.19;;;25.26;51.56
15678;BME280;7939;50.814;6.368;2023-06-22T06:46:31;99998.59;;;25.24;51.68
15678;BME280;7939;50.814;6.368;2023-06-22T06:48:58;99999.44;;;25.24;51.66
15678;BME280;7939;50.814;6.368;2023-06-22T06:51:25;100005.41;;;25.26;51.73
15678;BME280;7939;50.814;6.368;2023-06-22T06:53:52;100001.03;;;25.27;51.50
15678;BME280;7939;50.814;6.368;2023-06-22T06:56:20;99995.72;;;25.28;51.44
15678;BME280;7939;50.814;6.368;2023-06-22T06:58:49;99988.72;;;25.29;51.46
15678;BME280;7939;50.814;6.368;2023-06-22T07:01:16;99988.50;;;25.32;51.28
15678;BME280;7939;50.814;6.368;2023-06-22T07:03:45;99988.50;;;25.32;51.71
15678;BME280;7939;50.814;6.368;2023-06-22T07:06:12;99976.38;;;25.31;51.63
15678;BME280;7939;50.814;6.368;2023-06-22T07:08:39;99970.19;;;25.32;51.60
15678;BME280;7939;50.814;6.368;2023-06-22T07:11:06;99961.50;;;25.32;51.67
15678;BME280;7939;50.814;6.368;2023-06-22T07:13:34;99966.69;;;25.33;51.41
15678;BME280;7939;50.814;6.368;2023-06-22T07:16:01;99958.75;;;25.35;51.91
15678;BME280;7939;50.814;6.368;2023-06-22T07:18:28;99952.44;;;25.53;51.94
15678;BME280;7939;50.814;6.368;2023-06-22T07:20:54;99943.28;;;25.60;51.16
15678;BME280;7939;50.814;6.368;2023-06-22T07:23:21;99943.53;;;25.70;51.21
15678;BME280;7939;50.814;6.368;2023-06-22T07:25:48;99937.91;;;25.77;51.01
15678;BME280;7939;50.814;6.368;2023-06-22T07:28:16;99939.28;;;25.83;50.58
15678;BME280;7939;50.814;6.368;2023-06-22T07:30:44;99942.41;;;25.90;50.56
15678;BME280;7939;50.814;6.368;2023-06-22T07:33:10;99937.91;;;25.92;50.95
15678;BME280;7939;50.814;6.368;2023-06-22T07:35:37;99938.47;;;25.97;50.35
15678;BME280;7939;50.814;6.368;2023-06-22T07:38:04;99932.94;;;26.01;50.55
15678;BME280;7939;50.814;6.368;2023-06-22T07:40:31;99919.38;;;26.09;50.57
15678;BME280;7939;50.814;6.368;2023-06-22T07:42:57;99914.59;;;26.01;50.18
15678;BME280;7939;50.814;6.368;2023-06-22T07:45:24;99906.00;;;25.99;50.41
15678;BME280;7939;50.814;6.368;2023-06-22T07:47:53;99899.94;;;25.99;50.18
15678;BME280;7939;50.814;6.368;2023-06-22T07:50:20;99893.84;;;25.98;50.12
15678;BME280;7939;50.814;6.368;2023-06-22T07:52:47;99888.50;;;26.00;50.31
15678;BME280;7939;50.814;6.368;2023-06-22T07:55:14;99892.72;;;26.02;50.21
15678;BME280;7939;50.814;6.368;2023-06-22T07:57:41;99903.84;;;26.06;50.21
15678;BME280;7939;50.814;6.368;2023-06-22T08:00:08;99904.78;;;26.05;50.33
15678;BME280;7939;50.814;6.368;2023-06-22T08:02:39;99903.66;;;26.09;50.41
15678;BME280;7939;50.814;6.368;2023-06-22T08:05:08;99892.97;;;26.12;50.46
15678;BME280;7939;50.814;6.368;2023-06-22T08:07:36;99872.03;;;26.12;50.67
15678;BME280;7939;50.814;6.368;2023-06-22T08:10:03;99879.72;;;26.15;50.61
15678;BME280;7939;50.814;6.368;2023-06-22T08:12:31;99872.47;;;26.19;50.20
15678;BME280;7939;50.814;6.368;2023-06-22T08:14:57;99862.72;;;26.21;50.92
15678;BME280;7939;50.814;6.368;2023-06-22T08:17:24;99843.38;;;26.23;50.68
15678;BME280;7939;50.814;6.368;2023-06-22T08:19:51;99843.28;;;26.25;50.91
15678;BME280;7939;50.814;6.368;2023-06-22T08:22:20;99849.06;;;26.30;50.32
15678;BME280;7939;50.814;6.368;2023-06-22T08:24:46;99857.38;;;26.36;50.40
15678;BME280;7939;50.814;6.368;2023-06-22T08:27:13;99859.03;;;26.38;50.49
15678;BME280;7939;50.814;6.368;2023-06-22T08:29:42;99874.69;;;26.53;50.20
15678;BME280;7939;50.814;6.368;2023-06-22T08:32:09;99876.91;;;26.59;49.86
15678;BME280;7939;50.814;6.368;2023-06-22T08:34:36;99871.44;;;26.62;50.46
15678;BME280;7939;50.814;6.368;2023-06-22T08:37:02;99868.81;;;26.62;50.29
15678;BME280;7939;50.814;6.368;2023-06-22T08:39:33;99873.88;;;26.66;50.67
15678;BME280;7939;50.814;6.368;2023-06-22T08:41:59;99859.63;;;26.70;50.47
15678;BME280;7939;50.814;6.368;2023-06-22T08:44:26;99857.66;;;26.73;50.30
15678;BME280;7939;50.814;6.368;2023-06-22T08:46:54;99859.22;;;26.76;50.22
15678;BME280;7939;50.814;6.368;2023-06-22T08:49:21;99854.50;;;26.81;49.97
15678;BME280;7939;50.814;6.368;2023-06-22T08:51:48;99845.59;;;26.83;49.92
15678;BME280;7939;50.814;6.368;2023-06-22T08:54:17;99842.66;;;26.88;49.55
15678;BME280;7939;50.814;6.368;2023-06-22T08:56:45;99848.44;;;26.93;50.98
15678;BME280;7939;50.814;6.368;2023-06-22T08:59:12;99847.41;;;26.96;50.76
15678;BME280;7939;50.814;6.368;2023-06-22T09:01:39;99845.41;;;26.99;51.30
15678;BME280;7939;50.814;6.368;2023-06-22T09:04:06;99838.84;;;27.06;50.64
15678;BME280;7939;50.814;6.368;2023-06-22T09:06:34;99837.59;;;27.12;51.04
15678;BME280;7939;50.814;6.368;2023-06-22T09:09:03;99828.59;;;27.16;50.95
15678;BME280;7939;50.814;6.368;2023-06-22T09:11:29;99825.63;;;27.21;50.82
15678;BME280;7939;50.814;6.368;2023-06-22T09:13:57;99810.28;;;27.27;50.60
15678;BME280;7939;50.814;6.368;2023-06-22T09:16:24;99803.06;;;27.31;50.75
15678;BME280;7939;50.814;6.368;2023-06-22T09:18:51;99798.22;;;27.37;50.52
15678;BME280;7939;50.814;6.368;2023-06-22T09:21:17;99804.84;;;27.43;50.71
15678;BME280;7939;50.814;6.368;2023-06-22T09:23:44;99799.72;;;27.41;50.93
15678;BME280;7939;50.814;6.368;2023-06-22T09:26:15;99796.13;;;27.42;50.66
15678;BME280;7939;50.814;6.368;2023-06-22T09:28:42;99802.50;;;27.51;50.72
15678;BME280;7939;50.814;6.368;2023-06-22T09:31:10;99804.94;;;27.54;50.63
15678;BME280;7939;50.814;6.368;2023-06-22T09:33:37;99807.75;;;27.51;51.09
15678;BME280;7939;50.814;6.368;2023-06-22T09:36:04;99810.19;;;27.54;51.36
15678;BME280;7939;50.814;6.368;2023-06-22T09:38:34;99807.56;;;27.54;51.05
15678;BME280;7939;50.814;6.368;2023-06-22T09:41:01;99802.19;;;27.56;51.33
15678;BME280;7939;50.814;6.368;2023-06-22T09:43:27;99813.53;;;27.56;51.11
15678;BME280;7939;50.814;6.368;2023-06-22T09:45:54;99812.59;;;27.57;50.52
15678;BME280;7939;50.814;6.368;2023-06-22T09:48:23;99838.97;;;27.56;49.88
15678;BME280;7939;50.814;6.368;2023-06-22T09:50:49;99847.44;;;27.59;50.49
15678;BME280;7939;50.814;6.368;2023-06-22T09:53:16;99869.41;;;27.58;49.09
15678;BME280;7939;50.814;6.368;2023-06-22T09:55:43;99902.59;;;27.59;49.50
15678;BME280;7939;50.814;6.368;2023-06-22T09:58:09;99915.94;;;27.56;49.35
15678;BME280;7939;50.814;6.368;2023-06-22T10:00:36;99913.31;;;27.56;49.28
15678;BME280;7939;50.814;6.368;2023-06-22T10:03:03;99916.66;;;27.58;49.09
15678;BME280;7939;50.814;6.368;2023-06-22T10:05:30;99916.78;;;27.57;48.92
15678;BME280;7939;50.814;6.368;2023-06-22T10:07:57;99912.59;;;27.54;49.50
15678;BME280;7939;50.814;6.368;2023-06-22T10:10:24;99918.03;;;27.51;51.19
15678;BME280;7939;50.814;6.368;2023-06-22T10:12:55;99917.31;;;27.49;50.41
15678;BME280;7939;50.814;6.368;2023-06-22T10:15:23;99924.34;;;27.49;51.24
15678;BME280;7939;50.814;6.368;2023-06-22T10:17:49;99931.25;;;27.50;51.08
15678;BME280;7939;50.814;6.368;2023-06-22T10:20:16;99932.09;;;27.50;51.18
15678;BME280;7939;50.814;6.368;2023-06-22T10:22:45;99933.25;;;27.46;51.58
15678;BME280;7939;50.814;6.368;2023-06-22T10:25:12;99937.13;;;27.40;51.37
15678;BME280;7939;50.814;6.368;2023-06-22T10:27:39;99937.34;;;27.37;52.01
15678;BME280;7939;50.814;6.368;2023-06-22T10:30:07;99939.75;;;27.40;52.04
15678;BME280;7939;50.814;6.368;2023-06-22T10:32:34;99928.41;;;27.40;52.29
15678;BME280;7939;50.814;6.368;2023-06-22T10:35:01;99917.19;;;27.38;52.97
15678;BME280;7939;50.814;6.368;2023-06-22T10:37:28;99898.91;;;27.36;53.73
15678;BME280;7939;50.814;6.368;2023-06-22T10:39:56;99900.28;;;27.29;54.40
15678;BME280;7939;50.814;6.368;2023-06-22T10:42:23;99906.25;;;27.31;54.01
15678;BME280;7939;50.814;6.368;2023-06-22T10:44:49;99909.72;;;27.32;53.93
15678;BME280;7939;50.814;6.368;2023-06-22T10:47:16;99908.22;;;27.28;54.49
15678;BME280;7939;50.814;6.368;2023-06-22T10:49:42;99886.31;;;27.16;54.81
15678;BME280;7939;50.814;6.368;2023-06-22T10:52:09;99848.41;;;27.07;56.01
15678;BME280;7939;50.814;6.368;2023-06-22T10:54:37;99824.44;;;26.99;56.93
15678;BME280;7939;50.814;6.368;2023-06-22T10:57:06;99800.41;;;26.93;57.11
15678;BME280;7939;50.814;6.368;2023-06-22T10:59:32;99757.06;;;26.87;58.08
15678;BME280;7939;50.814;6.368;2023-06-22T11:01:59;99744.25;;;26.82;57.73
15678;BME280;7939;50.814;6.368;2023-06-22T11:04:26;99786.97;;;26.84;57.71
15678;BME280;7939;50.814;6.368;2023-06-22T11:06:52;99818.53;;;26.83;58.88
15678;BME280;7939;50.814;6.368;2023-06-22T11:09:19;99830.91;;;26.81;59.72
15678;BME280;7939;50.814;6.368;2023-06-22T11:11:46;99814.34;;;26.80;60.46
15678;BME280;7939;50.814;6.368;2023-06-22T11:14:15;99778.56;;;26.79;61.33
15678;BME280;7939;50.814;6.368;2023-06-22T11:16:41;99741.97;;;26.78;60.89
15678;BME280;7939;50.814;6.368;2023-06-22T11:19:08;99750.03;;;26.75;60.91
15678;BME280;7939;50.814;6.368;2023-06-22T11:21:34;99745.72;;;26.74;60.52
15678;BME280;7939;50.814;6.368;2023-06-22T11:24:01;99744.13;;;26.71;60.88
15678;BME280;7939;50.814;6.368;2023-06-22T11:26:28;99736.19;;;26.73;61.42
15678;BME280;7939;50.814;6.368;2023-06-22T11:28:54;99732.81;;;26.71;61.88
15678;BME280;7939;50.814;6.368;2023-06-22T11:31:22;99732.81;;;26.71;61.73
15678;BME280;7939;50.814;6.368;2023-06-22T11:33:49;99732.09;;;26.69;61.52
15678;BME280;7939;50.814;6.368;2023-06-22T11:36:16;99728.53;;;26.70;62.25
15678;BME280;7939;50.814;6.368;2023-06-22T11:38:43;99722.44;;;26.69;61.95
15678;BME280;7939;50.814;6.368;2023-06-22T11:41:10;99724.22;;;26.69;61.57
15678;BME280;7939;50.814;6.368;2023-06-22T11:43:37;99717.72;;;26.74;61.70
15678;BME280;7939;50.814;6.368;2023-06-22T11:46:03;99722.31;;;26.71;61.91
15678;BME280;7939;50.814;6.368;2023-06-22T11:48:32;99730.72;;;26.76;61.45
15678;BME280;7939;50.814;6.368;2023-06-22T11:50:58;99717.72;;;26.74;61.67
15678;BME280;7939;50.814;6.368;2023-06-22T11:53:26;99719.63;;;26.72;61.85
15678;BME280;7939;50.814;6.368;2023-06-22T11:55:53;99721.41;;;26.72;61.85
15678;BME280;7939;50.814;6.368;2023-06-22T11:58:20;99713.31;;;26.75;61.90
15678;BME280;7939;50.814;6.368;2023-06-22T12:00:47;99707.25;;;26.74;61.76
15678;BME280;7939;50.814;6.368;2023-06-22T12:03:14;99702.72;;;26.76;61.69
15678;BME280;7939;50.814;6.368;2023-06-22T12:05:43;99696.53;;;26.77;61.49
15678;BME280;7939;50.814;6.368;2023-06-22T12:08:09;99696.53;;;26.77;61.53
15678;BME280;7939;50.814;6.368;2023-06-22T12:10:37;99697.47;;;26.76;61.74
15678;BME280;7939;50.814;6.368;2023-06-22T12:13:03;99699.50;;;26.85;62.18
15678;BME280;7939;50.814;6.368;2023-06-22T12:15:30;99692.16;;;26.91;62.01
15678;BME280;7939;50.814;6.368;2023-06-22T12:17:57;99698.53;;;26.86;61.81
15678;BME280;7939;50.814;6.368;2023-06-22T12:20:23;99693.41;;;26.85;62.17
15678;BME280;7939;50.814;6.368;2023-06-22T12:22:51;99691.63;;;26.85;62.26
15678;BME280;7939;50.814;6.368;2023-06-22T12:25:21;99681.31;;;26.82;62.56
15678;BME280;7939;50.814;6.368;2023-06-22T12:27:48;99680.38;;;26.83;61.71
15678;BME280;7939;50.814;6.368;2023-06-22T12:30:16;99670.72;;;26.84;62.49
15678;BME280;7939;50.814;6.368;2023-06-22T12:32:43;99665.69;;;26.81;62.52
15678;BME280;7939;50.814;6.368;2023-06-22T12:35:09;99660.47;;;26.81;62.43
15678;BME280;7939;50.814;6.368;2023-06-22T12:37:39;99654.25;;;26.82;62.60
15678;BME280;7939;50.814;6.368;2023-06-22T12:40:09;99657.84;;;26.81;62.44
15678;BME280;7939;50.814;6.368;2023-06-22T12:42:36;99657.19;;;26.77;62.50
15678;BME280;7939;50.814;6.368;2023-06-22T12:45:03;99652.47;;;26.82;62.09
15678;BME280;7939;50.814;6.368;2023-06-22T12:47:30;99654.38;;;26.80;62.09
15678;BME280;7939;50.814;6.368;2023-06-22T12:49:57;99643.88;;;26.80;62.56
15678;BME280;7939;50.814;6.368;2023-06-22T12:52:23;99644.63;;;26.82;62.52
15678;BME280;7939;50.814;6.368;2023-06-22T12:54:50;99643.56;;;26.85;62.42
15678;BME280;7939;50.814;6.368;2023-06-22T12:57:19;99648.06;;;26.83;62.01
15678;BME280;7939;50.814;6.368;2023-06-22T12:59:45;99644.63;;;26.82;62.05
15678;BME280;7939;50.814;6.368;2023-06-22T13:02:12;99639.25;;;26.84;62.71
15678;BME280;7939;50.814;6.368;2023-06-22T13:04:38;99633.09;;;26.85;62.62
15678;BME280;7939;50.814;6.368;2023-06-22T13:07:05;99632.97;;;26.86;62.05
15678;BME280;7939;50.814;6.368;2023-06-22T13:09:32;99633.94;;;26.85;62.22